Zeit Nach Flug-Nr.
Alle Abflüge →
EDDM 291450Z AUTO 11006KT 080V140 9999 -RA FEW016 10/06 Q1004 TEMPO RA BKN014

 LIVE MAP


DEPARTURES | ARRIVALS

Flug-Nr. ETD From To Status Gate (EDDM) In Progress
MUC126 : Munich Manchester LANDED (MUC216) 107

Worldwide Destinations

We fly both, continentale- and intercontinental destinations

Fleet

München Airways is provided with the most modern fleet

Real ATC

We fly on the Online-Network "IVAO". With standard phrases of the DFS we fly easily by the most different airspaces

The Social

In our Airline the fun as well as the respect is very valuable between the pilots

Real Flight Routes

All routes are checked by us and are updated daily. Summer as well as winter flight schedules bring you a lot of variety

Teamspeak 3

With the use of the Teamspeak 3 server the pilots can fly together or exchange themselves mutually

 LIVEBOARD

 FUTURE EVENTS

EventDate

 NOTAMS

NOTAMDate

*/